Prattsville, New York
Current Conditions -  °F | °C
As of 7:51 AM on Sunday 23 Nov 2014 (Local Time) from KALB Reporting Station
Overcast Overcast  
Wind Chill: 38°   Ceiling: 3500
Heat Index: 42°   Visibility: 10mi
Dew Point: 27°   Wind: 7mph
Humidity: 55%   Direction: 160°SSE
Pressure: 30.12"   Gusts: NA
Location:  42.31°N, 74.43°W
Report Text: KALB 231251Z 16006KT 10SM OVC035 06/M03 A3012 RMK AO2 SLP202 T00561028
Loading
Personal Weather Stations






























Interactive Weather Map New forecast layout! Learn more

10-Day Weather Forecast

Advertisements
Track Severe Weather on mobile